sensor_id;sensor_type;location;lat;lon;timestamp;P1;durP1;ratioP1;P2;durP2;ratioP2
8500;SDS011;4288;48.484;10.024;2023-04-24T00:00:13;1.20;;;0.70;;
8500;SDS011;4288;48.484;10.024;2023-04-24T00:02:42;6.43;;;0.70;;
8500;SDS011;4288;48.484;10.024;2023-04-24T00:05:11;1.43;;;0.70;;
8500;SDS011;4288;48.484;10.024;2023-04-24T00:07:38;0.70;;;0.63;;
8500;SDS011;4288;48.484;10.024;2023-04-24T00:10:06;0.60;;;0.60;;
8500;SDS011;4288;48.484;10.024;2023-04-24T00:12:34;0.80;;;0.80;;
8500;SDS011;4288;48.484;10.024;2023-04-24T00:15:01;0.60;;;0.60;;
8500;SDS011;4288;48.484;10.024;2023-04-24T00:17:29;0.70;;;0.70;;
8500;SDS011;4288;48.484;10.024;2023-04-24T00:19:56;1.13;;;0.60;;
8500;SDS011;4288;48.484;10.024;2023-04-24T00:22:24;0.70;;;0.70;;
8500;SDS011;4288;48.484;10.024;2023-04-24T00:24:51;0.60;;;0.60;;
8500;SDS011;4288;48.484;10.024;2023-04-24T00:27:18;0.73;;;0.73;;
8500;SDS011;4288;48.484;10.024;2023-04-24T00:29:45;0.80;;;0.77;;
8500;SDS011;4288;48.484;10.024;2023-04-24T00:32:12;0.70;;;0.60;;
8500;SDS011;4288;48.484;10.024;2023-04-24T00:34:40;0.60;;;0.60;;
8500;SDS011;4288;48.484;10.024;2023-04-24T00:37:07;0.60;;;0.60;;
8500;SDS011;4288;48.484;10.024;2023-04-24T00:39:34;0.80;;;0.60;;
8500;SDS011;4288;48.484;10.024;2023-04-24T00:42:01;1.10;;;0.70;;
8500;SDS011;4288;48.484;10.024;2023-04-24T00:44:28;2.47;;;0.57;;
8500;SDS011;4288;48.484;10.024;2023-04-24T00:46:55;1.30;;;0.70;;
8500;SDS011;4288;48.484;10.024;2023-04-24T00:49:21;2.07;;;0.77;;
8500;SDS011;4288;48.484;10.024;2023-04-24T00:51:50;0.60;;;0.60;;
8500;SDS011;4288;48.484;10.024;2023-04-24T00:54:17;1.23;;;0.60;;
8500;SDS011;4288;48.484;10.024;2023-04-24T00:56:44;0.60;;;0.60;;
8500;SDS011;4288;48.484;10.024;2023-04-24T00:59:11;0.70;;;0.70;;
8500;SDS011;4288;48.484;10.024;2023-04-24T01:01:38;0.80;;;0.80;;
8500;SDS011;4288;48.484;10.024;2023-04-24T01:04:07;0.70;;;0.70;;
8500;SDS011;4288;48.484;10.024;2023-04-24T01:06:35;0.70;;;0.70;;
8500;SDS011;4288;48.484;10.024;2023-04-24T01:09:07;1.10;;;0.93;;
8500;SDS011;4288;48.484;10.024;2023-04-24T01:11:34;0.80;;;0.70;;
8500;SDS011;4288;48.484;10.024;2023-04-24T01:14:01;0.70;;;0.70;;
8500;SDS011;4288;48.484;10.024;2023-04-24T01:16:28;0.60;;;0.60;;
8500;SDS011;4288;48.484;10.024;2023-04-24T01:18:55;1.10;;;0.77;;
8500;SDS011;4288;48.484;10.024;2023-04-24T01:21:22;0.50;;;0.50;;
8500;SDS011;4288;48.484;10.024;2023-04-24T01:23:54;0.60;;;0.60;;
8500;SDS011;4288;48.484;10.024;2023-04-24T01:26:22;0.73;;;0.73;;
8500;SDS011;4288;48.484;10.024;2023-04-24T01:28:50;0.70;;;0.70;;
8500;SDS011;4288;48.484;10.024;2023-04-24T01:31:18;0.80;;;0.63;;
8500;SDS011;4288;48.484;10.024;2023-04-24T01:33:45;1.17;;;0.70;;
8500;SDS011;4288;48.484;10.024;2023-04-24T01:36:12;0.53;;;0.53;;
8500;SDS011;4288;48.484;10.024;2023-04-24T01:38:40;0.60;;;0.60;;
8500;SDS011;4288;48.484;10.024;2023-04-24T01:41:08;0.70;;;0.70;;
8500;SDS011;4288;48.484;10.024;2023-04-24T01:43:35;0.50;;;0.50;;
8500;SDS011;4288;48.484;10.024;2023-04-24T01:46:02;1.00;;;0.70;;
8500;SDS011;4288;48.484;10.024;2023-04-24T01:48:29;0.77;;;0.77;;
8500;SDS011;4288;48.484;10.024;2023-04-24T01:50:56;1.87;;;0.80;;
8500;SDS011;4288;48.484;10.024;2023-04-24T01:53:23;0.90;;;0.70;;
8500;SDS011;4288;48.484;10.024;2023-04-24T01:55:50;0.70;;;0.70;;
8500;SDS011;4288;48.484;10.024;2023-04-24T01:58:18;2.33;;;0.70;;
8500;SDS011;4288;48.484;10.024;2023-04-24T02:00:45;0.60;;;0.60;;
8500;SDS011;4288;48.484;10.024;2023-04-24T02:03:12;0.70;;;0.67;;
8500;SDS011;4288;48.484;10.024;2023-04-24T02:05:39;1.37;;;0.73;;
8500;SDS011;4288;48.484;10.024;2023-04-24T02:08:06;0.70;;;0.70;;
8500;SDS011;4288;48.484;10.024;2023-04-24T02:10:33;1.10;;;0.67;;
8500;SDS011;4288;48.484;10.024;2023-04-24T02:12:59;1.10;;;0.57;;
8500;SDS011;4288;48.484;10.024;2023-04-24T02:15:28;0.60;;;0.60;;
8500;SDS011;4288;48.484;10.024;2023-04-24T02:17:54;1.23;;;0.60;;
8500;SDS011;4288;48.484;10.024;2023-04-24T02:20:21;1.27;;;0.63;;
8500;SDS011;4288;48.484;10.024;2023-04-24T02:22:48;0.60;;;0.60;;
8500;SDS011;4288;48.484;10.024;2023-04-24T02:25:16;0.60;;;0.60;;
8500;SDS011;4288;48.484;10.024;2023-04-24T02:27:43;0.80;;;0.70;;
8500;SDS011;4288;48.484;10.024;2023-04-24T02:30:10;0.70;;;0.70;;
8500;SDS011;4288;48.484;10.024;2023-04-24T02:32:38;2.10;;;0.80;;
8500;SDS011;4288;48.484;10.024;2023-04-24T02:35:05;0.60;;;0.60;;
8500;SDS011;4288;48.484;10.024;2023-04-24T02:37:33;0.60;;;0.60;;
8500;SDS011;4288;48.484;10.024;2023-04-24T02:40:00;0.57;;;0.57;;
8500;SDS011;4288;48.484;10.024;2023-04-24T02:42:26;0.50;;;0.50;;
8500;SDS011;4288;48.484;10.024;2023-04-24T02:44:53;0.87;;;0.60;;
8500;SDS011;4288;48.484;10.024;2023-04-24T02:47:20;0.70;;;0.70;;
8500;SDS011;4288;48.484;10.024;2023-04-24T02:49:48;0.70;;;0.70;;
8500;SDS011;4288;48.484;10.024;2023-04-24T02:52:15;0.70;;;0.60;;
8500;SDS011;4288;48.484;10.024;2023-04-24T02:54:42;0.60;;;0.60;;
8500;SDS011;4288;48.484;10.024;2023-04-24T02:57:09;0.60;;;0.60;;
8500;SDS011;4288;48.484;10.024;2023-04-24T02:59:36;0.80;;;0.60;;
8500;SDS011;4288;48.484;10.024;2023-04-24T03:02:03;1.13;;;0.60;;
8500;SDS011;4288;48.484;10.024;2023-04-24T03:04:30;0.83;;;0.60;;
8500;SDS011;4288;48.484;10.024;2023-04-24T03:06:59;0.50;;;0.50;;
8500;SDS011;4288;48.484;10.024;2023-04-24T03:09:26;1.50;;;0.90;;
8500;SDS011;4288;48.484;10.024;2023-04-24T03:11:53;1.03;;;0.60;;
8500;SDS011;4288;48.484;10.024;2023-04-24T03:14:20;1.10;;;0.60;;
8500;SDS011;4288;48.484;10.024;2023-04-24T03:16:47;0.50;;;0.50;;
8500;SDS011;4288;48.484;10.024;2023-04-24T03:19:15;1.07;;;0.60;;
8500;SDS011;4288;48.484;10.024;2023-04-24T03:21:42;0.70;;;0.60;;
8500;SDS011;4288;48.484;10.024;2023-04-24T03:24:10;0.60;;;0.60;;
8500;SDS011;4288;48.484;10.024;2023-04-24T03:26:37;0.67;;;0.60;;
8500;SDS011;4288;48.484;10.024;2023-04-24T03:29:03;0.70;;;0.50;;
8500;SDS011;4288;48.484;10.024;2023-04-24T03:31:30;0.93;;;0.60;;
8500;SDS011;4288;48.484;10.024;2023-04-24T03:33:57;0.60;;;0.60;;
8500;SDS011;4288;48.484;10.024;2023-04-24T03:36:24;0.60;;;0.60;;
8500;SDS011;4288;48.484;10.024;2023-04-24T03:38:51;0.90;;;0.80;;
8500;SDS011;4288;48.484;10.024;2023-04-24T03:41:19;0.50;;;0.50;;
8500;SDS011;4288;48.484;10.024;2023-04-24T03:43:47;2.77;;;0.60;;
8500;SDS011;4288;48.484;10.024;2023-04-24T03:46:14;0.60;;;0.50;;
8500;SDS011;4288;48.484;10.024;2023-04-24T03:48:41;2.53;;;0.73;;
8500;SDS011;4288;48.484;10.024;2023-04-24T03:51:08;0.50;;;0.50;;
8500;SDS011;4288;48.484;10.024;2023-04-24T03:53:35;0.73;;;0.70;;
8500;SDS011;4288;48.484;10.024;2023-04-24T03:56:02;0.50;;;0.50;;
8500;SDS011;4288;48.484;10.024;2023-04-24T03:58:30;0.60;;;0.60;;
8500;SDS011;4288;48.484;10.024;2023-04-24T04:00:57;0.83;;;0.60;;
8500;SDS011;4288;48.484;10.024;2023-04-24T04:03:23;0.50;;;0.50;;
8500;SDS011;4288;48.484;10.024;2023-04-24T04:05:51;0.60;;;0.60;;
8500;SDS011;4288;48.484;10.024;2023-04-24T04:08:19;1.10;;;0.60;;
8500;SDS011;4288;48.484;10.024;2023-04-24T04:10:46;0.60;;;0.60;;
8500;SDS011;4288;48.484;10.024;2023-04-24T04:13:12;0.60;;;0.60;;
8500;SDS011;4288;48.484;10.024;2023-04-24T04:15:41;0.70;;;0.50;;
8500;SDS011;4288;48.484;10.024;2023-04-24T04:18:08;1.83;;;0.67;;
8500;SDS011;4288;48.484;10.024;2023-04-24T04:20:34;1.20;;;0.60;;
8500;SDS011;4288;48.484;10.024;2023-04-24T04:23:01;0.53;;;0.53;;
8500;SDS011;4288;48.484;10.024;2023-04-24T04:25:28;0.60;;;0.60;;
8500;SDS011;4288;48.484;10.024;2023-04-24T04:27:55;0.60;;;0.60;;
8500;SDS011;4288;48.484;10.024;2023-04-24T04:30:23;0.60;;;0.60;;
8500;SDS011;4288;48.484;10.024;2023-04-24T04:32:52;0.50;;;0.50;;
8500;SDS011;4288;48.484;10.024;2023-04-24T04:35:19;0.63;;;0.60;;
8500;SDS011;4288;48.484;10.024;2023-04-24T04:37:45;0.73;;;0.60;;
8500;SDS011;4288;48.484;10.024;2023-04-24T04:40:12;0.90;;;0.70;;
8500;SDS011;4288;48.484;10.024;2023-04-24T04:42:39;0.53;;;0.53;;
8500;SDS011;4288;48.484;10.024;2023-04-24T04:45:07;0.60;;;0.60;;
8500;SDS011;4288;48.484;10.024;2023-04-24T04:47:36;0.93;;;0.50;;
8500;SDS011;4288;48.484;10.024;2023-04-24T04:50:06;0.70;;;0.70;;
8500;SDS011;4288;48.484;10.024;2023-04-24T04:52:33;0.70;;;0.50;;
8500;SDS011;4288;48.484;10.024;2023-04-24T04:55:00;1.00;;;0.53;;
8500;SDS011;4288;48.484;10.024;2023-04-24T04:57:27;0.60;;;0.60;;
8500;SDS011;4288;48.484;10.024;2023-04-24T04:59:55;1.10;;;0.80;;
8500;SDS011;4288;48.484;10.024;2023-04-24T05:02:22;0.50;;;0.50;;
8500;SDS011;4288;48.484;10.024;2023-04-24T05:04:48;1.37;;;0.57;;
8500;SDS011;4288;48.484;10.024;2023-04-24T05:07:17;2.97;;;0.80;;
8500;SDS011;4288;48.484;10.024;2023-04-24T05:09:44;1.33;;;0.70;;
8500;SDS011;4288;48.484;10.024;2023-04-24T05:12:10;0.90;;;0.63;;
8500;SDS011;4288;48.484;10.024;2023-04-24T05:14:37;2.93;;;1.13;;
8500;SDS011;4288;48.484;10.024;2023-04-24T05:17:04;0.60;;;0.60;;
8500;SDS011;4288;48.484;10.024;2023-04-24T05:19:31;5.60;;;0.60;;
8500;SDS011;4288;48.484;10.024;2023-04-24T05:22:01;1.60;;;0.70;;
8500;SDS011;4288;48.484;10.024;2023-04-24T05:24:30;2.20;;;0.70;;
8500;SDS011;4288;48.484;10.024;2023-04-24T05:26:57;0.60;;;0.60;;
8500;SDS011;4288;48.484;10.024;2023-04-24T05:29:24;2.70;;;0.70;;
8500;SDS011;4288;48.484;10.024;2023-04-24T05:31:52;1.47;;;0.70;;
8500;SDS011;4288;48.484;10.024;2023-04-24T05:34:19;7.10;;;0.80;;
8500;SDS011;4288;48.484;10.024;2023-04-24T05:36:45;6.23;;;1.07;;
8500;SDS011;4288;48.484;10.024;2023-04-24T05:39:12;3.43;;;0.90;;
8500;SDS011;4288;48.484;10.024;2023-04-24T05:41:41;5.90;;;0.80;;
8500;SDS011;4288;48.484;10.024;2023-04-24T05:44:08;2.20;;;0.77;;
8500;SDS011;4288;48.484;10.024;2023-04-24T05:46:35;4.53;;;0.70;;
8500;SDS011;4288;48.484;10.024;2023-04-24T05:49:02;2.73;;;0.80;;
8500;SDS011;4288;48.484;10.024;2023-04-24T05:51:29;0.97;;;0.60;;
8500;SDS011;4288;48.484;10.024;2023-04-24T05:53:56;0.70;;;0.60;;
8500;SDS011;4288;48.484;10.024;2023-04-24T05:56:23;4.20;;;0.67;;
8500;SDS011;4288;48.484;10.024;2023-04-24T05:58:51;3.27;;;0.73;;
8500;SDS011;4288;48.484;10.024;2023-04-24T06:01:18;3.17;;;0.70;;
8500;SDS011;4288;48.484;10.024;2023-04-24T06:03:45;5.23;;;0.77;;
8500;SDS011;4288;48.484;10.024;2023-04-24T06:06:12;2.60;;;0.80;;
8500;SDS011;4288;48.484;10.024;2023-04-24T06:08:39;2.30;;;0.67;;
8500;SDS011;4288;48.484;10.024;2023-04-24T06:11:07;1.37;;;0.80;;
8500;SDS011;4288;48.484;10.024;2023-04-24T06:13:34;3.43;;;0.77;;
8500;SDS011;4288;48.484;10.024;2023-04-24T06:16:02;1.13;;;0.60;;
8500;SDS011;4288;48.484;10.024;2023-04-24T06:18:29;2.60;;;0.80;;
8500;SDS011;4288;48.484;10.024;2023-04-24T06:20:56;2.20;;;0.70;;
8500;SDS011;4288;48.484;10.024;2023-04-24T06:23:22;0.70;;;0.67;;
8500;SDS011;4288;48.484;10.024;2023-04-24T06:25:50;0.90;;;0.80;;
8500;SDS011;4288;48.484;10.024;2023-04-24T06:28:17;1.37;;;0.60;;
8500;SDS011;4288;48.484;10.024;2023-04-24T06:30:44;1.20;;;0.60;;
8500;SDS011;4288;48.484;10.024;2023-04-24T06:33:12;0.80;;;0.80;;
8500;SDS011;4288;48.484;10.024;2023-04-24T06:35:39;1.23;;;0.50;;
8500;SDS011;4288;48.484;10.024;2023-04-24T06:38:06;0.70;;;0.70;;
8500;SDS011;4288;48.484;10.024;2023-04-24T06:40:33;2.20;;;0.70;;
8500;SDS011;4288;48.484;10.024;2023-04-24T06:43:00;3.20;;;0.80;;
8500;SDS011;4288;48.484;10.024;2023-04-24T06:45:27;0.60;;;0.60;;
8500;SDS011;4288;48.484;10.024;2023-04-24T06:47:54;2.50;;;0.80;;
8500;SDS011;4288;48.484;10.024;2023-04-24T06:50:23;3.13;;;0.93;;
8500;SDS011;4288;48.484;10.024;2023-04-24T06:52:50;2.70;;;0.60;;
8500;SDS011;4288;48.484;10.024;2023-04-24T06:55:17;0.80;;;0.60;;
8500;SDS011;4288;48.484;10.024;2023-04-24T06:57:44;3.50;;;0.93;;
8500;SDS011;4288;48.484;10.024;2023-04-24T07:00:11;1.00;;;0.80;;
8500;SDS011;4288;48.484;10.024;2023-04-24T07:02:39;2.60;;;0.70;;
8500;SDS011;4288;48.484;10.024;2023-04-24T07:05:06;0.90;;;0.60;;
8500;SDS011;4288;48.484;10.024;2023-04-24T07:07:34;1.57;;;0.60;;
8500;SDS011;4288;48.484;10.024;2023-04-24T07:10:03;1.23;;;0.60;;
8500;SDS011;4288;48.484;10.024;2023-04-24T07:12:30;0.57;;;0.57;;
8500;SDS011;4288;48.484;10.024;2023-04-24T07:14:57;1.13;;;0.60;;
8500;SDS011;4288;48.484;10.024;2023-04-24T07:17:24;2.33;;;0.80;;
8500;SDS011;4288;48.484;10.024;2023-04-24T07:19:51;9.70;;;1.00;;
8500;SDS011;4288;48.484;10.024;2023-04-24T07:22:17;3.20;;;0.70;;
8500;SDS011;4288;48.484;10.024;2023-04-24T07:24:46;0.60;;;0.60;;
8500;SDS011;4288;48.484;10.024;2023-04-24T07:27:12;5.00;;;3.03;;
8500;SDS011;4288;48.484;10.024;2023-04-24T07:29:40;3.03;;;0.50;;
8500;SDS011;4288;48.484;10.024;2023-04-24T07:32:07;0.63;;;0.63;;
8500;SDS011;4288;48.484;10.024;2023-04-24T07:34:34;1.37;;;0.80;;
8500;SDS011;4288;48.484;10.024;2023-04-24T07:37:01;1.00;;;0.80;;
8500;SDS011;4288;48.484;10.024;2023-04-24T07:39:28;2.90;;;0.63;;
8500;SDS011;4288;48.484;10.024;2023-04-24T07:41:56;4.47;;;0.70;;
8500;SDS011;4288;48.484;10.024;2023-04-24T07:44:24;0.80;;;0.50;;
8500;SDS011;4288;48.484;10.024;2023-04-24T07:46:51;0.70;;;0.60;;
8500;SDS011;4288;48.484;10.024;2023-04-24T07:49:18;1.47;;;0.70;;
8500;SDS011;4288;48.484;10.024;2023-04-24T07:51:45;1.10;;;0.60;;
8500;SDS011;4288;48.484;10.024;2023-04-24T07:54:12;0.70;;;0.70;;
8500;SDS011;4288;48.484;10.024;2023-04-24T07:56:40;1.40;;;0.70;;
8500;SDS011;4288;48.484;10.024;2023-04-24T07:59:09;0.80;;;0.80;;
8500;SDS011;4288;48.484;10.024;2023-04-24T08:01:36;0.70;;;0.60;;
8500;SDS011;4288;48.484;10.024;2023-04-24T08:04:03;1.80;;;1.13;;
8500;SDS011;4288;48.484;10.024;2023-04-24T08:06:30;1.93;;;0.87;;
8500;SDS011;4288;48.484;10.024;2023-04-24T08:08:57;0.83;;;0.83;;
8500;SDS011;4288;48.484;10.024;2023-04-24T08:11:25;1.80;;;1.23;;
8500;SDS011;4288;48.484;10.024;2023-04-24T08:13:52;2.13;;;0.93;;
8500;SDS011;4288;48.484;10.024;2023-04-24T08:16:21;4.10;;;1.00;;
8500;SDS011;4288;48.484;10.024;2023-04-24T08:18:48;3.53;;;1.00;;
8500;SDS011;4288;48.484;10.024;2023-04-24T08:21:15;1.47;;;0.93;;
8500;SDS011;4288;48.484;10.024;2023-04-24T08:23:43;1.77;;;1.33;;
8500;SDS011;4288;48.484;10.024;2023-04-24T08:26:10;0.97;;;0.87;;
8500;SDS011;4288;48.484;10.024;2023-04-24T08:28:37;1.90;;;0.83;;
8500;SDS011;4288;48.484;10.024;2023-04-24T08:31:04;3.30;;;1.10;;
8500;SDS011;4288;48.484;10.024;2023-04-24T08:33:33;2.00;;;1.40;;
8500;SDS011;4288;48.484;10.024;2023-04-24T08:36:00;2.77;;;1.10;;
8500;SDS011;4288;48.484;10.024;2023-04-24T08:38:28;1.00;;;0.80;;
8500;SDS011;4288;48.484;10.024;2023-04-24T08:40:55;5.57;;;0.90;;
8500;SDS011;4288;48.484;10.024;2023-04-24T08:43:24;2.23;;;1.43;;
8500;SDS011;4288;48.484;10.024;2023-04-24T08:45:52;1.87;;;0.90;;
8500;SDS011;4288;48.484;10.024;2023-04-24T08:48:19;1.50;;;1.07;;
8500;SDS011;4288;48.484;10.024;2023-04-24T08:50:48;0.70;;;0.70;;
8500;SDS011;4288;48.484;10.024;2023-04-24T08:53:15;0.97;;;0.90;;
8500;SDS011;4288;48.484;10.024;2023-04-24T08:55:42;2.93;;;0.90;;
8500;SDS011;4288;48.484;10.024;2023-04-24T08:58:10;1.13;;;1.00;;
8500;SDS011;4288;48.484;10.024;2023-04-24T09:00:37;0.73;;;0.73;;
8500;SDS011;4288;48.484;10.024;2023-04-24T09:03:09;1.10;;;1.00;;
8500;SDS011;4288;48.484;10.024;2023-04-24T09:05:36;1.60;;;1.10;;
8500;SDS011;4288;48.484;10.024;2023-04-24T09:08:04;1.20;;;1.10;;
8500;SDS011;4288;48.484;10.024;2023-04-24T09:10:32;5.30;;;2.10;;
8500;SDS011;4288;48.484;10.024;2023-04-24T09:13:01;10.67;;;2.80;;
8500;SDS011;4288;48.484;10.024;2023-04-24T09:15:27;13.60;;;5.47;;
8500;SDS011;4288;48.484;10.024;2023-04-24T09:17:55;18.50;;;6.20;;
8500;SDS011;4288;48.484;10.024;2023-04-24T09:20:22;18.00;;;5.63;;
8500;SDS011;4288;48.484;10.024;2023-04-24T09:22:52;16.00;;;6.60;;
8500;SDS011;4288;48.484;10.024;2023-04-24T09:25:21;12.00;;;4.90;;
8500;SDS011;4288;48.484;10.024;2023-04-24T09:27:48;15.47;;;6.00;;
8500;SDS011;4288;48.484;10.024;2023-04-24T09:30:18;12.03;;;4.50;;
8500;SDS011;4288;48.484;10.024;2023-04-24T09:32:47;17.83;;;4.90;;
8500;SDS011;4288;48.484;10.024;2023-04-24T09:35:15;17.13;;;4.90;;
8500;SDS011;4288;48.484;10.024;2023-04-24T09:37:43;12.83;;;4.37;;
8500;SDS011;4288;48.484;10.024;2023-04-24T09:40:11;10.63;;;4.40;;
8500;SDS011;4288;48.484;10.024;2023-04-24T09:42:41;17.63;;;4.70;;
8500;SDS011;4288;48.484;10.024;2023-04-24T09:45:10;10.00;;;4.53;;
8500;SDS011;4288;48.484;10.024;2023-04-24T09:47:37;10.70;;;4.20;;
8500;SDS011;4288;48.484;10.024;2023-04-24T09:50:09;15.10;;;4.63;;
8500;SDS011;4288;48.484;10.024;2023-04-24T09:52:39;7.37;;;3.60;;
8500;SDS011;4288;48.484;10.024;2023-04-24T09:55:10;18.67;;;4.47;;
8500;SDS011;4288;48.484;10.024;2023-04-24T09:57:47;9.27;;;3.37;;
8500;SDS011;4288;48.484;10.024;2023-04-24T10:00:17;11.10;;;3.97;;
8500;SDS011;4288;48.484;10.024;2023-04-24T10:02:49;8.07;;;3.27;;
8500;SDS011;4288;48.484;10.024;2023-04-24T10:05:17;10.87;;;3.10;;
8500;SDS011;4288;48.484;10.024;2023-04-24T10:07:44;12.90;;;3.57;;
8500;SDS011;4288;48.484;10.024;2023-04-24T10:10:11;8.10;;;3.07;;
8500;SDS011;4288;48.484;10.024;2023-04-24T10:12:38;10.70;;;3.17;;
8500;SDS011;4288;48.484;10.024;2023-04-24T10:15:08;5.87;;;3.00;;
8500;SDS011;4288;48.484;10.024;2023-04-24T10:17:38;4.97;;;2.47;;
8500;SDS011;4288;48.484;10.024;2023-04-24T10:20:05;8.90;;;3.27;;
8500;SDS011;4288;48.484;10.024;2023-04-24T10:22:33;5.00;;;2.83;;
8500;SDS011;4288;48.484;10.024;2023-04-24T10:25:00;4.60;;;2.40;;
8500;SDS011;4288;48.484;10.024;2023-04-24T10:27:31;6.40;;;3.17;;
8500;SDS011;4288;48.484;10.024;2023-04-24T10:29:58;3.63;;;2.00;;
8500;SDS011;4288;48.484;10.024;2023-04-24T10:32:26;4.60;;;2.33;;
8500;SDS011;4288;48.484;10.024;2023-04-24T10:34:54;8.03;;;2.60;;
8500;SDS011;4288;48.484;10.024;2023-04-24T10:37:21;8.90;;;2.50;;
8500;SDS011;4288;48.484;10.024;2023-04-24T10:39:49;4.60;;;2.40;;
8500;SDS011;4288;48.484;10.024;2023-04-24T10:42:19;3.60;;;2.00;;
8500;SDS011;4288;48.484;10.024;2023-04-24T10:44:47;6.53;;;3.10;;
8500;SDS011;4288;48.484;10.024;2023-04-24T10:47:14;6.50;;;2.43;;
8500;SDS011;4288;48.484;10.024;2023-04-24T10:49:42;6.30;;;2.40;;
8500;SDS011;4288;48.484;10.024;2023-04-24T10:52:09;7.83;;;1.97;;
8500;SDS011;4288;48.484;10.024;2023-04-24T10:54:41;5.57;;;2.03;;
8500;SDS011;4288;48.484;10.024;2023-04-24T10:57:27;6.50;;;2.17;;
8500;SDS011;4288;48.484;10.024;2023-04-24T11:00:15;6.03;;;2.40;;
8500;SDS011;4288;48.484;10.024;2023-04-24T11:02:45;3.97;;;2.07;;
8500;SDS011;4288;48.484;10.024;2023-04-24T11:05:16;3.53;;;1.87;;
8500;SDS011;4288;48.484;10.024;2023-04-24T11:10:39;7.73;;;2.10;;
8500;SDS011;4288;48.484;10.024;2023-04-24T11:13:06;3.03;;;1.63;;
8500;SDS011;4288;48.484;10.024;2023-04-24T11:15:34;7.13;;;2.10;;
8500;SDS011;4288;48.484;10.024;2023-04-24T11:18:01;4.03;;;1.63;;
8500;SDS011;4288;48.484;10.024;2023-04-24T11:20:29;4.30;;;1.87;;
8500;SDS011;4288;48.484;10.024;2023-04-24T11:22:58;3.17;;;2.23;;
8500;SDS011;4288;48.484;10.024;2023-04-24T11:25:30;3.00;;;2.20;;
8500;SDS011;4288;48.484;10.024;2023-04-24T11:28:02;14.00;;;2.20;;
8500;SDS011;4288;48.484;10.024;2023-04-24T11:30:31;3.67;;;1.90;;
8500;SDS011;4288;48.484;10.024;2023-04-24T11:33:02;3.73;;;1.73;;
8500;SDS011;4288;48.484;10.024;2023-04-24T11:35:30;2.00;;;1.50;;
8500;SDS011;4288;48.484;10.024;2023-04-24T11:38:02;3.73;;;1.50;;
8500;SDS011;4288;48.484;10.024;2023-04-24T11:40:30;5.10;;;1.97;;
8500;SDS011;4288;48.484;10.024;2023-04-24T11:42:59;2.27;;;1.57;;
8500;SDS011;4288;48.484;10.024;2023-04-24T11:45:27;4.63;;;1.87;;
8500;SDS011;4288;48.484;10.024;2023-04-24T11:47:54;4.40;;;1.10;;
8500;SDS011;4288;48.484;10.024;2023-04-24T11:50:22;1.67;;;1.40;;
8500;SDS011;4288;48.484;10.024;2023-04-24T11:52:52;3.20;;;1.77;;
8500;SDS011;4288;48.484;10.024;2023-04-24T11:55:22;1.70;;;1.37;;
8500;SDS011;4288;48.484;10.024;2023-04-24T11:57:52;2.00;;;1.53;;
8500;SDS011;4288;48.484;10.024;2023-04-24T12:00:22;3.10;;;1.83;;
8500;SDS011;4288;48.484;10.024;2023-04-24T12:02:51;3.43;;;1.50;;
8500;SDS011;4288;48.484;10.024;2023-04-24T12:05:21;4.03;;;1.20;;
8500;SDS011;4288;48.484;10.024;2023-04-24T12:07:53;2.03;;;1.50;;
8500;SDS011;4288;48.484;10.024;2023-04-24T12:10:20;2.03;;;1.67;;
8500;SDS011;4288;48.484;10.024;2023-04-24T12:12:47;1.40;;;1.30;;
8500;SDS011;4288;48.484;10.024;2023-04-24T12:15:16;2.07;;;1.33;;
8500;SDS011;4288;48.484;10.024;2023-04-24T12:17:43;6.30;;;1.33;;
8500;SDS011;4288;48.484;10.024;2023-04-24T12:20:11;3.20;;;1.53;;
8500;SDS011;4288;48.484;10.024;2023-04-24T12:22:45;1.93;;;1.20;;
8500;SDS011;4288;48.484;10.024;2023-04-24T12:25:15;2.53;;;1.50;;
8500;SDS011;4288;48.484;10.024;2023-04-24T12:27:43;4.37;;;1.40;;
8500;SDS011;4288;48.484;10.024;2023-04-24T12:30:10;5.60;;;1.40;;
8500;SDS011;4288;48.484;10.024;2023-04-24T12:32:42;2.80;;;1.57;;
8500;SDS011;4288;48.484;10.024;2023-04-24T12:35:09;1.37;;;1.20;;
8500;SDS011;4288;48.484;10.024;2023-04-24T12:37:36;7.30;;;2.90;;
8500;SDS011;4288;48.484;10.024;2023-04-24T12:40:05;3.53;;;2.80;;
8500;SDS011;4288;48.484;10.024;2023-04-24T12:42:35;4.83;;;3.37;;
8500;SDS011;4288;48.484;10.024;2023-04-24T12:45:03;5.60;;;3.20;;
8500;SDS011;4288;48.484;10.024;2023-04-24T12:47:31;4.93;;;3.10;;
8500;SDS011;4288;48.484;10.024;2023-04-24T12:49:59;4.10;;;2.63;;
8500;SDS011;4288;48.484;10.024;2023-04-24T12:52:26;6.57;;;2.80;;
8500;SDS011;4288;48.484;10.024;2023-04-24T12:54:55;3.00;;;1.80;;
8500;SDS011;4288;48.484;10.024;2023-04-24T12:57:26;4.80;;;2.43;;
8500;SDS011;4288;48.484;10.024;2023-04-24T12:59:56;3.40;;;2.23;;
8500;SDS011;4288;48.484;10.024;2023-04-24T13:02:23;3.20;;;2.17;;
8500;SDS011;4288;48.484;10.024;2023-04-24T13:04:51;2.20;;;2.00;;
8500;SDS011;4288;48.484;10.024;2023-04-24T13:07:19;5.00;;;2.30;;
8500;SDS011;4288;48.484;10.024;2023-04-24T13:09:47;2.50;;;1.70;;
8500;SDS011;4288;48.484;10.024;2023-04-24T13:12:15;2.40;;;1.87;;
8500;SDS011;4288;48.484;10.024;2023-04-24T13:14:42;5.13;;;2.20;;
8500;SDS011;4288;48.484;10.024;2023-04-24T13:17:10;2.30;;;2.10;;
8500;SDS011;4288;48.484;10.024;2023-04-24T13:19:38;2.73;;;1.80;;
8500;SDS011;4288;48.484;10.024;2023-04-24T13:22:05;3.70;;;1.63;;
8500;SDS011;4288;48.484;10.024;2023-04-24T13:24:33;1.60;;;1.37;;
8500;SDS011;4288;48.484;10.024;2023-04-24T13:27:00;2.20;;;1.80;;
8500;SDS011;4288;48.484;10.024;2023-04-24T13:29:27;2.60;;;1.77;;
8500;SDS011;4288;48.484;10.024;2023-04-24T13:31:54;1.90;;;1.67;;
8500;SDS011;4288;48.484;10.024;2023-04-24T13:34:23;1.57;;;1.10;;
8500;SDS011;4288;48.484;10.024;2023-04-24T13:36:50;2.07;;;1.40;;
8500;SDS011;4288;48.484;10.024;2023-04-24T13:39:17;5.33;;;1.40;;
8500;SDS011;4288;48.484;10.024;2023-04-24T13:41:44;3.30;;;1.60;;
8500;SDS011;4288;48.484;10.024;2023-04-24T13:44:12;5.33;;;1.50;;
8500;SDS011;4288;48.484;10.024;2023-04-24T13:46:40;1.40;;;1.23;;
8500;SDS011;4288;48.484;10.024;2023-04-24T13:49:06;1.40;;;1.10;;
8500;SDS011;4288;48.484;10.024;2023-04-24T13:51:35;2.53;;;1.60;;
8500;SDS011;4288;48.484;10.024;2023-04-24T13:54:02;4.30;;;1.47;;
8500;SDS011;4288;48.484;10.024;2023-04-24T13:56:29;1.50;;;1.33;;
8500;SDS011;4288;48.484;10.024;2023-04-24T13:58:56;2.00;;;1.57;;
8500;SDS011;4288;48.484;10.024;2023-04-24T14:01:23;2.53;;;1.03;;
8500;SDS011;4288;48.484;10.024;2023-04-24T14:03:50;2.87;;;1.60;;
8500;SDS011;4288;48.484;10.024;2023-04-24T14:06:17;2.33;;;1.10;;
8500;SDS011;4288;48.484;10.024;2023-04-24T14:08:45;1.77;;;1.37;;
8500;SDS011;4288;48.484;10.024;2023-04-24T14:11:12;1.47;;;1.10;;
8500;SDS011;4288;48.484;10.024;2023-04-24T14:13:40;1.50;;;1.27;;
8500;SDS011;4288;48.484;10.024;2023-04-24T14:16:07;3.50;;;1.30;;
8500;SDS011;4288;48.484;10.024;2023-04-24T14:18:34;1.40;;;1.00;;
8500;SDS011;4288;48.484;10.024;2023-04-24T14:21:01;1.20;;;1.10;;
8500;SDS011;4288;48.484;10.024;2023-04-24T14:23:28;1.20;;;1.10;;
8500;SDS011;4288;48.484;10.024;2023-04-24T14:25:56;1.10;;;1.00;;
8500;SDS011;4288;48.484;10.024;2023-04-24T14:28:24;3.90;;;1.07;;
8500;SDS011;4288;48.484;10.024;2023-04-24T14:30:51;1.20;;;1.00;;
8500;SDS011;4288;48.484;10.024;2023-04-24T14:33:18;1.77;;;1.10;;
8500;SDS011;4288;48.484;10.024;2023-04-24T14:35:45;2.33;;;1.17;;
8500;SDS011;4288;48.484;10.024;2023-04-24T14:38:12;1.70;;;1.00;;
8500;SDS011;4288;48.484;10.024;2023-04-24T14:40:40;3.33;;;0.80;;
8500;SDS011;4288;48.484;10.024;2023-04-24T14:43:08;1.40;;;0.90;;
8500;SDS011;4288;48.484;10.024;2023-04-24T14:45:35;4.00;;;0.93;;
8500;SDS011;4288;48.484;10.024;2023-04-24T14:48:03;1.13;;;0.80;;
8500;SDS011;4288;48.484;10.024;2023-04-24T14:50:30;1.80;;;1.47;;
8500;SDS011;4288;48.484;10.024;2023-04-24T14:52:57;1.53;;;0.90;;
8500;SDS011;4288;48.484;10.024;2023-04-24T14:55:24;1.90;;;1.00;;
8500;SDS011;4288;48.484;10.024;2023-04-24T14:57:51;0.63;;;0.63;;
8500;SDS011;4288;48.484;10.024;2023-04-24T15:00:20;0.97;;;0.80;;
8500;SDS011;4288;48.484;10.024;2023-04-24T15:02:48;3.30;;;1.07;;
8500;SDS011;4288;48.484;10.024;2023-04-24T15:05:15;0.77;;;0.70;;